sensor_id;sensor_type;location;lat;lon;timestamp;temperature;humidity
6672;DHT22;3372;48.690;12.362;2023-03-21T00:01:04;8.50;47.10
6672;DHT22;3372;48.690;12.362;2023-03-21T00:03:31;8.50;47.10
6672;DHT22;3372;48.690;12.362;2023-03-21T00:06:03;8.60;47.70
6672;DHT22;3372;48.690;12.362;2023-03-21T00:08:29;8.40;48.00
6672;DHT22;3372;48.690;12.362;2023-03-21T00:11:02;8.40;47.50
6672;DHT22;3372;48.690;12.362;2023-03-21T00:13:30;8.30;47.50
6672;DHT22;3372;48.690;12.362;2023-03-21T00:16:14;8.30;47.00
6672;DHT22;3372;48.690;12.362;2023-03-21T00:18:46;8.40;47.40
6672;DHT22;3372;48.690;12.362;2023-03-21T00:21:15;8.30;47.30
6672;DHT22;3372;48.690;12.362;2023-03-21T00:23:43;8.30;47.30
6672;DHT22;3372;48.690;12.362;2023-03-21T00:26:09;8.20;46.60
6672;DHT22;3372;48.690;12.362;2023-03-21T00:28:36;8.20;46.20
6672;DHT22;3372;48.690;12.362;2023-03-21T00:31:02;8.20;46.80
6672;DHT22;3372;48.690;12.362;2023-03-21T00:33:28;8.10;47.20
6672;DHT22;3372;48.690;12.362;2023-03-21T00:35:54;8.10;47.40
6672;DHT22;3372;48.690;12.362;2023-03-21T00:38:21;8.10;48.10
6672;DHT22;3372;48.690;12.362;2023-03-21T00:40:47;8.10;48.70
6672;DHT22;3372;48.690;12.362;2023-03-21T00:43:13;8.10;48.50
6672;DHT22;3372;48.690;12.362;2023-03-21T00:45:45;8.10;47.70
6672;DHT22;3372;48.690;12.362;2023-03-21T00:48:12;8.00;48.20
6672;DHT22;3372;48.690;12.362;2023-03-21T00:50:38;8.00;47.80
6672;DHT22;3372;48.690;12.362;2023-03-21T00:53:05;8.10;48.60
6672;DHT22;3372;48.690;12.362;2023-03-21T00:55:31;8.10;48.80
6672;DHT22;3372;48.690;12.362;2023-03-21T00:57:57;8.10;49.60
6672;DHT22;3372;48.690;12.362;2023-03-21T01:00:22;8.10;49.10
6672;DHT22;3372;48.690;12.362;2023-03-21T01:02:48;8.10;48.80
6672;DHT22;3372;48.690;12.362;2023-03-21T01:05:25;8.10;49.80
6672;DHT22;3372;48.690;12.362;2023-03-21T01:08:15;8.10;50.50
6672;DHT22;3372;48.690;12.362;2023-03-21T01:10:44;8.10;51.10
6672;DHT22;3372;48.690;12.362;2023-03-21T01:13:12;8.20;51.30
6672;DHT22;3372;48.690;12.362;2023-03-21T01:15:47;8.20;51.50
6672;DHT22;3372;48.690;12.362;2023-03-21T01:18:14;8.30;51.50
6672;DHT22;3372;48.690;12.362;2023-03-21T01:20:43;8.30;51.50
6672;DHT22;3372;48.690;12.362;2023-03-21T01:23:11;8.40;51.50
6672;DHT22;3372;48.690;12.362;2023-03-21T01:25:37;8.40;53.00
6672;DHT22;3372;48.690;12.362;2023-03-21T01:28:04;8.40;52.20
6672;DHT22;3372;48.690;12.362;2023-03-21T01:30:30;8.40;52.00
6672;DHT22;3372;48.690;12.362;2023-03-21T01:32:56;8.50;51.80
6672;DHT22;3372;48.690;12.362;2023-03-21T01:35:22;8.50;51.50
6672;DHT22;3372;48.690;12.362;2023-03-21T01:37:48;8.60;52.10
6672;DHT22;3372;48.690;12.362;2023-03-21T01:40:18;8.60;51.60
6672;DHT22;3372;48.690;12.362;2023-03-21T01:42:45;8.70;51.00
6672;DHT22;3372;48.690;12.362;2023-03-21T01:48:14;8.70;52.70
6672;DHT22;3372;48.690;12.362;2023-03-21T01:50:41;8.80;51.50
6672;DHT22;3372;48.690;12.362;2023-03-21T01:53:07;8.80;51.80
6672;DHT22;3372;48.690;12.362;2023-03-21T01:55:34;8.80;51.00
6672;DHT22;3372;48.690;12.362;2023-03-21T01:58:02;8.90;51.00
6672;DHT22;3372;48.690;12.362;2023-03-21T02:00:29;8.90;51.20
6672;DHT22;3372;48.690;12.362;2023-03-21T02:02:57;8.90;51.80
6672;DHT22;3372;48.690;12.362;2023-03-21T02:05:36;9.00;51.20
6672;DHT22;3372;48.690;12.362;2023-03-21T02:08:03;9.00;51.10
6672;DHT22;3372;48.690;12.362;2023-03-21T02:10:31;9.00;51.00
6672;DHT22;3372;48.690;12.362;2023-03-21T02:13:00;9.00;51.00
6672;DHT22;3372;48.690;12.362;2023-03-21T02:15:34;9.10;51.20
6672;DHT22;3372;48.690;12.362;2023-03-21T02:18:09;9.10;50.80
6672;DHT22;3372;48.690;12.362;2023-03-21T02:26:19;9.00;51.60
6672;DHT22;3372;48.690;12.362;2023-03-21T02:31:45;9.10;51.20
6672;DHT22;3372;48.690;12.362;2023-03-21T02:42:36;9.20;51.00
6672;DHT22;3372;48.690;12.362;2023-03-21T02:45:25;9.20;51.50
6672;DHT22;3372;48.690;12.362;2023-03-21T02:48:02;9.20;52.30
6672;DHT22;3372;48.690;12.362;2023-03-21T02:50:37;9.20;51.50
6672;DHT22;3372;48.690;12.362;2023-03-21T02:53:07;9.20;51.50
6672;DHT22;3372;48.690;12.362;2023-03-21T02:55:34;9.20;51.40
6672;DHT22;3372;48.690;12.362;2023-03-21T02:58:02;9.20;51.30
6672;DHT22;3372;48.690;12.362;2023-03-21T03:00:32;9.30;51.30
6672;DHT22;3372;48.690;12.362;2023-03-21T03:02:58;9.20;51.80
6672;DHT22;3372;48.690;12.362;2023-03-21T03:05:27;9.30;51.40
6672;DHT22;3372;48.690;12.362;2023-03-21T03:20:47;9.20;53.90
6672;DHT22;3372;48.690;12.362;2023-03-21T03:23:42;9.30;52.80
6672;DHT22;3372;48.690;12.362;2023-03-21T03:28:54;9.30;53.40
6672;DHT22;3372;48.690;12.362;2023-03-21T03:31:28;9.30;53.30
6672;DHT22;3372;48.690;12.362;2023-03-21T03:33:59;9.30;53.40
6672;DHT22;3372;48.690;12.362;2023-03-21T03:36:31;9.30;53.20
6672;DHT22;3372;48.690;12.362;2023-03-21T03:39:02;9.30;53.00
6672;DHT22;3372;48.690;12.362;2023-03-21T03:41:29;9.30;53.00
6672;DHT22;3372;48.690;12.362;2023-03-21T03:43:58;9.30;53.40
6672;DHT22;3372;48.690;12.362;2023-03-21T03:46:35;9.30;52.80
6672;DHT22;3372;48.690;12.362;2023-03-21T03:49:22;9.40;53.70
6672;DHT22;3372;48.690;12.362;2023-03-21T03:52:12;9.30;54.50
6672;DHT22;3372;48.690;12.362;2023-03-21T03:54:43;9.30;54.10
6672;DHT22;3372;48.690;12.362;2023-03-21T03:57:10;9.30;53.90
6672;DHT22;3372;48.690;12.362;2023-03-21T03:59:40;9.30;53.80
6672;DHT22;3372;48.690;12.362;2023-03-21T04:02:06;9.30;53.80
6672;DHT22;3372;48.690;12.362;2023-03-21T04:04:32;9.30;53.30
6672;DHT22;3372;48.690;12.362;2023-03-21T04:06:58;9.30;53.90
6672;DHT22;3372;48.690;12.362;2023-03-21T04:09:25;9.40;53.70
6672;DHT22;3372;48.690;12.362;2023-03-21T04:11:53;9.40;53.00
6672;DHT22;3372;48.690;12.362;2023-03-21T04:14:19;9.50;52.70
6672;DHT22;3372;48.690;12.362;2023-03-21T04:16:44;9.50;53.20
6672;DHT22;3372;48.690;12.362;2023-03-21T04:19:11;9.40;53.00
6672;DHT22;3372;48.690;12.362;2023-03-21T04:21:37;9.50;52.80
6672;DHT22;3372;48.690;12.362;2023-03-21T04:24:03;9.50;52.60
6672;DHT22;3372;48.690;12.362;2023-03-21T04:26:29;9.50;52.60
6672;DHT22;3372;48.690;12.362;2023-03-21T04:28:57;9.50;52.90
6672;DHT22;3372;48.690;12.362;2023-03-21T04:31:25;9.50;53.00
6672;DHT22;3372;48.690;12.362;2023-03-21T04:33:53;9.50;52.90
6672;DHT22;3372;48.690;12.362;2023-03-21T04:36:20;9.40;53.40
6672;DHT22;3372;48.690;12.362;2023-03-21T04:38:56;9.40;53.90
6672;DHT22;3372;48.690;12.362;2023-03-21T04:41:26;9.40;53.70
6672;DHT22;3372;48.690;12.362;2023-03-21T04:43:52;9.40;53.70
6672;DHT22;3372;48.690;12.362;2023-03-21T04:46:18;9.50;53.40
6672;DHT22;3372;48.690;12.362;2023-03-21T04:48:43;9.50;53.10
6672;DHT22;3372;48.690;12.362;2023-03-21T04:51:09;9.50;53.30
6672;DHT22;3372;48.690;12.362;2023-03-21T04:53:34;9.50;53.10
6672;DHT22;3372;48.690;12.362;2023-03-21T04:56:02;9.50;54.20
6672;DHT22;3372;48.690;12.362;2023-03-21T04:58:28;9.50;52.90
6672;DHT22;3372;48.690;12.362;2023-03-21T05:00:54;9.50;54.10
6672;DHT22;3372;48.690;12.362;2023-03-21T05:03:22;9.40;54.10
6672;DHT22;3372;48.690;12.362;2023-03-21T05:05:48;9.50;54.40
6672;DHT22;3372;48.690;12.362;2023-03-21T05:08:14;9.40;53.80
6672;DHT22;3372;48.690;12.362;2023-03-21T05:10:42;9.50;54.10
6672;DHT22;3372;48.690;12.362;2023-03-21T05:13:08;9.50;54.30
6672;DHT22;3372;48.690;12.362;2023-03-21T05:15:33;9.40;53.80
6672;DHT22;3372;48.690;12.362;2023-03-21T05:17:59;9.40;54.10
6672;DHT22;3372;48.690;12.362;2023-03-21T05:20:37;9.40;54.40
6672;DHT22;3372;48.690;12.362;2023-03-21T05:23:08;9.40;54.10
6672;DHT22;3372;48.690;12.362;2023-03-21T05:25:36;9.50;54.10
6672;DHT22;3372;48.690;12.362;2023-03-21T05:28:04;9.40;53.70
6672;DHT22;3372;48.690;12.362;2023-03-21T05:30:30;9.50;53.20
6672;DHT22;3372;48.690;12.362;2023-03-21T05:32:55;9.50;53.10
6672;DHT22;3372;48.690;12.362;2023-03-21T05:35:21;9.50;53.00
6672;DHT22;3372;48.690;12.362;2023-03-21T05:37:47;9.40;53.70
6672;DHT22;3372;48.690;12.362;2023-03-21T05:40:12;9.50;53.80
6672;DHT22;3372;48.690;12.362;2023-03-21T05:42:38;9.50;54.60
6672;DHT22;3372;48.690;12.362;2023-03-21T05:45:04;9.50;53.80
6672;DHT22;3372;48.690;12.362;2023-03-21T05:47:30;9.50;53.70
6672;DHT22;3372;48.690;12.362;2023-03-21T05:49:56;9.50;53.60
6672;DHT22;3372;48.690;12.362;2023-03-21T05:52:21;9.60;53.60
6672;DHT22;3372;48.690;12.362;2023-03-21T05:54:47;9.60;53.50
6672;DHT22;3372;48.690;12.362;2023-03-21T05:57:12;9.60;54.60
6672;DHT22;3372;48.690;12.362;2023-03-21T05:59:38;9.60;54.10
6672;DHT22;3372;48.690;12.362;2023-03-21T06:02:04;9.60;54.20
6672;DHT22;3372;48.690;12.362;2023-03-21T06:04:30;9.60;54.40
6672;DHT22;3372;48.690;12.362;2023-03-21T06:06:55;9.60;53.70
6672;DHT22;3372;48.690;12.362;2023-03-21T06:09:21;9.60;53.80
6672;DHT22;3372;48.690;12.362;2023-03-21T06:11:49;9.70;53.40
6672;DHT22;3372;48.690;12.362;2023-03-21T06:14:16;9.70;53.50
6672;DHT22;3372;48.690;12.362;2023-03-21T06:16:41;9.70;53.60
6672;DHT22;3372;48.690;12.362;2023-03-21T06:19:07;9.70;54.00
6672;DHT22;3372;48.690;12.362;2023-03-21T06:21:33;9.80;53.80
6672;DHT22;3372;48.690;12.362;2023-03-21T06:23:59;9.80;53.60
6672;DHT22;3372;48.690;12.362;2023-03-21T06:26:24;9.90;54.20
6672;DHT22;3372;48.690;12.362;2023-03-21T06:28:51;10.00;53.10
6672;DHT22;3372;48.690;12.362;2023-03-21T06:31:17;10.00;52.20
6672;DHT22;3372;48.690;12.362;2023-03-21T06:33:43;10.10;51.80
6672;DHT22;3372;48.690;12.362;2023-03-21T06:36:09;10.20;51.50
6672;DHT22;3372;48.690;12.362;2023-03-21T06:38:35;10.30;51.20
6672;DHT22;3372;48.690;12.362;2023-03-21T06:41:03;10.40;51.20
6672;DHT22;3372;48.690;12.362;2023-03-21T06:43:29;10.50;50.30
6672;DHT22;3372;48.690;12.362;2023-03-21T06:45:56;10.50;50.50
6672;DHT22;3372;48.690;12.362;2023-03-21T06:48:22;10.50;51.20
6672;DHT22;3372;48.690;12.362;2023-03-21T06:50:51;10.60;50.10
6672;DHT22;3372;48.690;12.362;2023-03-21T06:53:18;10.70;50.00
6672;DHT22;3372;48.690;12.362;2023-03-21T06:55:54;10.70;50.00
6672;DHT22;3372;48.690;12.362;2023-03-21T06:58:21;10.80;50.00
6672;DHT22;3372;48.690;12.362;2023-03-21T07:00:47;10.80;50.10
6672;DHT22;3372;48.690;12.362;2023-03-21T07:03:13;10.80;50.10
6672;DHT22;3372;48.690;12.362;2023-03-21T07:05:39;10.90;50.20
6672;DHT22;3372;48.690;12.362;2023-03-21T07:08:06;11.00;50.30
6672;DHT22;3372;48.690;12.362;2023-03-21T07:10:37;11.80;49.50
6672;DHT22;3372;48.690;12.362;2023-03-21T07:13:03;12.50;46.10
6672;DHT22;3372;48.690;12.362;2023-03-21T07:15:29;13.00;43.70
6672;DHT22;3372;48.690;12.362;2023-03-21T07:17:54;13.40;42.00
6672;DHT22;3372;48.690;12.362;2023-03-21T07:20:20;13.70;39.10
6672;DHT22;3372;48.690;12.362;2023-03-21T07:22:45;13.80;37.90
6672;DHT22;3372;48.690;12.362;2023-03-21T07:25:11;13.70;37.50
6672;DHT22;3372;48.690;12.362;2023-03-21T07:27:37;14.20;37.90
6672;DHT22;3372;48.690;12.362;2023-03-21T07:30:04;14.60;38.00
6672;DHT22;3372;48.690;12.362;2023-03-21T07:32:34;14.70;35.90
6672;DHT22;3372;48.690;12.362;2023-03-21T07:35:00;14.60;34.90
6672;DHT22;3372;48.690;12.362;2023-03-21T07:37:26;14.40;35.10
6672;DHT22;3372;48.690;12.362;2023-03-21T07:39:52;14.10;36.10
6672;DHT22;3372;48.690;12.362;2023-03-21T07:42:17;14.00;35.80
6672;DHT22;3372;48.690;12.362;2023-03-21T07:44:43;14.00;36.10
6672;DHT22;3372;48.690;12.362;2023-03-21T07:47:09;14.20;35.20
6672;DHT22;3372;48.690;12.362;2023-03-21T07:49:36;14.20;32.80
6672;DHT22;3372;48.690;12.362;2023-03-21T07:52:02;14.50;34.20
6672;DHT22;3372;48.690;12.362;2023-03-21T07:54:28;14.60;34.70
6672;DHT22;3372;48.690;12.362;2023-03-21T07:56:54;14.80;33.10
6672;DHT22;3372;48.690;12.362;2023-03-21T07:59:21;14.70;32.40
6672;DHT22;3372;48.690;12.362;2023-03-21T08:01:47;14.90;32.70
6672;DHT22;3372;48.690;12.362;2023-03-21T08:04:12;15.20;30.00
6672;DHT22;3372;48.690;12.362;2023-03-21T08:06:38;15.40;28.60
6672;DHT22;3372;48.690;12.362;2023-03-21T08:09:04;15.20;28.70
6672;DHT22;3372;48.690;12.362;2023-03-21T08:11:30;15.80;30.10
6672;DHT22;3372;48.690;12.362;2023-03-21T08:13:59;16.30;27.70
6672;DHT22;3372;48.690;12.362;2023-03-21T08:16:28;16.00;26.20
6672;DHT22;3372;48.690;12.362;2023-03-21T08:18:53;15.90;28.20
6672;DHT22;3372;48.690;12.362;2023-03-21T08:21:19;15.80;27.90
6672;DHT22;3372;48.690;12.362;2023-03-21T08:23:44;16.00;27.00
6672;DHT22;3372;48.690;12.362;2023-03-21T08:26:10;16.20;27.30
6672;DHT22;3372;48.690;12.362;2023-03-21T08:28:40;15.60;22.80
6672;DHT22;3372;48.690;12.362;2023-03-21T08:31:07;15.60;26.90
6672;DHT22;3372;48.690;12.362;2023-03-21T08:33:33;15.70;25.30
6672;DHT22;3372;48.690;12.362;2023-03-21T08:35:59;16.00;27.80
6672;DHT22;3372;48.690;12.362;2023-03-21T08:38:25;16.30;25.30
6672;DHT22;3372;48.690;12.362;2023-03-21T08:40:54;16.40;24.70
6672;DHT22;3372;48.690;12.362;2023-03-21T08:43:21;16.60;26.20
6672;DHT22;3372;48.690;12.362;2023-03-21T08:45:48;16.90;25.70
6672;DHT22;3372;48.690;12.362;2023-03-21T08:48:13;16.90;21.60
6672;DHT22;3372;48.690;12.362;2023-03-21T08:50:39;16.90;22.40
6672;DHT22;3372;48.690;12.362;2023-03-21T08:53:05;16.70;22.00
6672;DHT22;3372;48.690;12.362;2023-03-21T08:55:31;16.90;23.20
6672;DHT22;3372;48.690;12.362;2023-03-21T08:57:57;17.30;23.50
6672;DHT22;3372;48.690;12.362;2023-03-21T09:00:23;17.40;22.90
6672;DHT22;3372;48.690;12.362;2023-03-21T09:02:49;17.50;20.30
6672;DHT22;3372;48.690;12.362;2023-03-21T09:05:17;17.40;22.50
6672;DHT22;3372;48.690;12.362;2023-03-21T09:07:44;17.00;20.40
6672;DHT22;3372;48.690;12.362;2023-03-21T09:10:13;16.70;21.20
6672;DHT22;3372;48.690;12.362;2023-03-21T09:12:39;16.60;22.20
6672;DHT22;3372;48.690;12.362;2023-03-21T09:15:06;16.10;24.20
6672;DHT22;3372;48.690;12.362;2023-03-21T09:17:32;16.10;24.10
6672;DHT22;3372;48.690;12.362;2023-03-21T09:19:58;16.00;22.50
6672;DHT22;3372;48.690;12.362;2023-03-21T09:22:25;16.10;23.90
6672;DHT22;3372;48.690;12.362;2023-03-21T09:24:52;16.60;23.20
6672;DHT22;3372;48.690;12.362;2023-03-21T09:27:18;16.40;21.10
6672;DHT22;3372;48.690;12.362;2023-03-21T09:29:48;16.90;21.60
6672;DHT22;3372;48.690;12.362;2023-03-21T09:32:14;17.00;20.80
6672;DHT22;3372;48.690;12.362;2023-03-21T09:34:42;16.20;17.90
6672;DHT22;3372;48.690;12.362;2023-03-21T09:37:08;16.60;20.90
6672;DHT22;3372;48.690;12.362;2023-03-21T09:39:40;16.60;20.60
6672;DHT22;3372;48.690;12.362;2023-03-21T09:42:27;16.90;20.70
6672;DHT22;3372;48.690;12.362;2023-03-21T09:45:05;16.10;18.40
6672;DHT22;3372;48.690;12.362;2023-03-21T09:47:39;16.50;20.00
6672;DHT22;3372;48.690;12.362;2023-03-21T09:50:16;16.40;20.50
6672;DHT22;3372;48.690;12.362;2023-03-21T09:55:28;15.80;18.00
6672;DHT22;3372;48.690;12.362;2023-03-21T09:58:23;16.10;20.70
6672;DHT22;3372;48.690;12.362;2023-03-21T10:01:17;16.30;21.10
6672;DHT22;3372;48.690;12.362;2023-03-21T10:03:51;16.60;20.70
6672;DHT22;3372;48.690;12.362;2023-03-21T10:06:22;16.30;20.90
6672;DHT22;3372;48.690;12.362;2023-03-21T10:08:54;16.60;21.90
6672;DHT22;3372;48.690;12.362;2023-03-21T10:11:26;16.40;20.30
6672;DHT22;3372;48.690;12.362;2023-03-21T10:14:00;16.50;19.60
6672;DHT22;3372;48.690;12.362;2023-03-21T10:16:28;16.30;20.90
6672;DHT22;3372;48.690;12.362;2023-03-21T10:18:55;16.90;20.50
6672;DHT22;3372;48.690;12.362;2023-03-21T10:21:24;16.60;19.80
6672;DHT22;3372;48.690;12.362;2023-03-21T10:23:52;16.80;19.70
6672;DHT22;3372;48.690;12.362;2023-03-21T10:26:20;16.80;20.40
6672;DHT22;3372;48.690;12.362;2023-03-21T10:28:48;17.00;19.10
6672;DHT22;3372;48.690;12.362;2023-03-21T10:31:17;16.90;18.80
6672;DHT22;3372;48.690;12.362;2023-03-21T10:33:45;16.70;19.50
6672;DHT22;3372;48.690;12.362;2023-03-21T10:36:15;16.40;20.50
6672;DHT22;3372;48.690;12.362;2023-03-21T10:38:48;16.40;21.10
6672;DHT22;3372;48.690;12.362;2023-03-21T10:41:15;16.60;20.60
6672;DHT22;3372;48.690;12.362;2023-03-21T10:43:42;16.80;20.90
6672;DHT22;3372;48.690;12.362;2023-03-21T10:46:17;16.60;20.10
6672;DHT22;3372;48.690;12.362;2023-03-21T10:48:50;16.80;18.60
6672;DHT22;3372;48.690;12.362;2023-03-21T10:51:22;16.80;18.40
6672;DHT22;3372;48.690;12.362;2023-03-21T10:53:57;16.40;15.10
6672;DHT22;3372;48.690;12.362;2023-03-21T10:56:27;16.40;15.00
6672;DHT22;3372;48.690;12.362;2023-03-21T10:58:58;16.50;17.80
6672;DHT22;3372;48.690;12.362;2023-03-21T11:01:39;16.60;16.80
6672;DHT22;3372;48.690;12.362;2023-03-21T11:04:25;16.70;17.80
6672;DHT22;3372;48.690;12.362;2023-03-21T11:07:02;16.60;15.10
6672;DHT22;3372;48.690;12.362;2023-03-21T11:09:48;16.80;17.80
6672;DHT22;3372;48.690;12.362;2023-03-21T11:12:31;16.90;15.40
6672;DHT22;3372;48.690;12.362;2023-03-21T11:15:39;16.90;14.30
6672;DHT22;3372;48.690;12.362;2023-03-21T11:18:01;16.90;14.50
6672;DHT22;3372;48.690;12.362;2023-03-21T11:20:42;16.50;13.50
6672;DHT22;3372;48.690;12.362;2023-03-21T11:23:14;16.60;17.10
6672;DHT22;3372;48.690;12.362;2023-03-21T11:25:41;16.60;16.70
6672;DHT22;3372;48.690;12.362;2023-03-21T11:28:15;16.60;17.30
6672;DHT22;3372;48.690;12.362;2023-03-21T11:30:57;16.70;16.70
6672;DHT22;3372;48.690;12.362;2023-03-21T11:33:34;16.70;15.00
6672;DHT22;3372;48.690;12.362;2023-03-21T11:36:02;16.80;15.80
6672;DHT22;3372;48.690;12.362;2023-03-21T11:38:39;16.80;17.60
6672;DHT22;3372;48.690;12.362;2023-03-21T11:41:06;16.80;18.10
6672;DHT22;3372;48.690;12.362;2023-03-21T11:43:36;16.80;17.10
6672;DHT22;3372;48.690;12.362;2023-03-21T11:46:12;16.70;18.30
6672;DHT22;3372;48.690;12.362;2023-03-21T11:48:45;17.00;18.10
6672;DHT22;3372;48.690;12.362;2023-03-21T11:54:16;17.00;15.10
6672;DHT22;3372;48.690;12.362;2023-03-21T11:56:50;17.00;15.90
6672;DHT22;3372;48.690;12.362;2023-03-21T12:05:32;17.20;16.90
6672;DHT22;3372;48.690;12.362;2023-03-21T12:13:36;17.30;17.00
6672;DHT22;3372;48.690;12.362;2023-03-21T12:25:23;17.00;14.60
6672;DHT22;3372;48.690;12.362;2023-03-21T12:28:05;17.10;15.10
6672;DHT22;3372;48.690;12.362;2023-03-21T12:30:53;17.00;17.10
6672;DHT22;3372;48.690;12.362;2023-03-21T12:36:36;17.20;16.30
6672;DHT22;3372;48.690;12.362;2023-03-21T12:41:49;17.10;18.10
6672;DHT22;3372;48.690;12.362;2023-03-21T12:44:20;17.10;18.60
6672;DHT22;3372;48.690;12.362;2023-03-21T12:47:10;17.00;18.50
6672;DHT22;3372;48.690;12.362;2023-03-21T12:49:42;17.00;17.50
6672;DHT22;3372;48.690;12.362;2023-03-21T12:52:15;16.90;18.20
6672;DHT22;3372;48.690;12.362;2023-03-21T12:54:56;17.00;17.20
6672;DHT22;3372;48.690;12.362;2023-03-21T12:57:36;16.90;18.10
6672;DHT22;3372;48.690;12.362;2023-03-21T13:00:42;17.10;18.10
6672;DHT22;3372;48.690;12.362;2023-03-21T13:03:25;17.10;17.40
6672;DHT22;3372;48.690;12.362;2023-03-21T13:05:56;17.10;17.50
6672;DHT22;3372;48.690;12.362;2023-03-21T13:08:33;16.90;17.60
6672;DHT22;3372;48.690;12.362;2023-03-21T13:11:00;17.10;18.60
6672;DHT22;3372;48.690;12.362;2023-03-21T13:21:19;17.20;17.30
6672;DHT22;3372;48.690;12.362;2023-03-21T13:26:38;17.30;17.80
6672;DHT22;3372;48.690;12.362;2023-03-21T13:29:27;17.20;17.40
6672;DHT22;3372;48.690;12.362;2023-03-21T13:31:57;17.20;16.50
6672;DHT22;3372;48.690;12.362;2023-03-21T13:34:24;17.30;18.70
6672;DHT22;3372;48.690;12.362;2023-03-21T13:36:51;17.30;17.80
6672;DHT22;3372;48.690;12.362;2023-03-21T13:39:27;17.40;18.10
6672;DHT22;3372;48.690;12.362;2023-03-21T13:41:54;17.30;15.70
6672;DHT22;3372;48.690;12.362;2023-03-21T13:47:00;17.40;16.70
6672;DHT22;3372;48.690;12.362;2023-03-21T13:49:35;17.40;16.30
6672;DHT22;3372;48.690;12.362;2023-03-21T13:52:25;17.40;17.30
6672;DHT22;3372;48.690;12.362;2023-03-21T13:54:53;17.40;15.60
6672;DHT22;3372;48.690;12.362;2023-03-21T13:57:40;17.40;17.50
6672;DHT22;3372;48.690;12.362;2023-03-21T14:00:22;17.30;16.30
6672;DHT22;3372;48.690;12.362;2023-03-21T14:03:13;17.40;16.70
6672;DHT22;3372;48.690;12.362;2023-03-21T14:05:49;17.40;16.00
6672;DHT22;3372;48.690;12.362;2023-03-21T14:08:18;17.40;17.80
6672;DHT22;3372;48.690;12.362;2023-03-21T14:10:47;17.30;17.90
6672;DHT22;3372;48.690;12.362;2023-03-21T14:13:19;17.30;18.20
6672;DHT22;3372;48.690;12.362;2023-03-21T14:15:53;17.30;17.80
6672;DHT22;3372;48.690;12.362;2023-03-21T14:18:21;17.30;18.40
6672;DHT22;3372;48.690;12.362;2023-03-21T14:20:57;17.30;18.30
6672;DHT22;3372;48.690;12.362;2023-03-21T14:23:24;17.30;15.90
6672;DHT22;3372;48.690;12.362;2023-03-21T14:25:50;17.40;18.40
6672;DHT22;3372;48.690;12.362;2023-03-21T14:28:21;17.40;17.40
6672;DHT22;3372;48.690;12.362;2023-03-21T14:30:58;17.50;16.60
6672;DHT22;3372;48.690;12.362;2023-03-21T14:33:30;17.20;16.00
6672;DHT22;3372;48.690;12.362;2023-03-21T14:36:09;17.40;18.40
6672;DHT22;3372;48.690;12.362;2023-03-21T14:38:37;17.30;15.90
6672;DHT22;3372;48.690;12.362;2023-03-21T14:41:04;17.20;17.70
6672;DHT22;3372;48.690;12.362;2023-03-21T14:43:30;17.40;18.70
6672;DHT22;3372;48.690;12.362;2023-03-21T14:45:58;17.40;17.60
6672;DHT22;3372;48.690;12.362;2023-03-21T14:48:42;17.30;15.80
6672;DHT22;3372;48.690;12.362;2023-03-21T14:51:10;17.20;16.50
6672;DHT22;3372;48.690;12.362;2023-03-21T14:53:41;17.10;16.80
6672;DHT22;3372;48.690;12.362;2023-03-21T14:56:23;17.20;18.60
6672;DHT22;3372;48.690;12.362;2023-03-21T14:58:51;17.30;17.90
6672;DHT22;3372;48.690;12.362;2023-03-21T15:01:38;17.40;18.40
6672;DHT22;3372;48.690;12.362;2023-03-21T15:04:06;17.40;16.30
6672;DHT22;3372;48.690;12.362;2023-03-21T15:06:31;17.10;16.90
6672;DHT22;3372;48.690;12.362;2023-03-21T15:09:04;17.20;18.40
6672;DHT22;3372;48.690;12.362;2023-03-21T15:14:20;17.20;17.80
6672;DHT22;3372;48.690;12.362;2023-03-21T15:16:48;17.30;18.30
6672;DHT22;3372;48.690;12.362;2023-03-21T15:19:18;17.20;17.60
6672;DHT22;3372;48.690;12.362;2023-03-21T15:21:51;17.20;17.90
6672;DHT22;3372;48.690;12.362;2023-03-21T15:24:31;17.20;18.60
6672;DHT22;3372;48.690;12.362;2023-03-21T15:27:11;17.20;18.10
6672;DHT22;3372;48.690;12.362;2023-03-21T15:29:43;17.20;18.50
6672;DHT22;3372;48.690;12.362;2023-03-21T15:32:14;17.20;18.30
6672;DHT22;3372;48.690;12.362;2023-03-21T15:34:44;17.20;18.70
6672;DHT22;3372;48.690;12.362;2023-03-21T15:37:16;17.30;19.30
6672;DHT22;3372;48.690;12.362;2023-03-21T15:39:44;17.30;18.80
6672;DHT22;3372;48.690;12.362;2023-03-21T15:42:43;17.30;18.70
6672;DHT22;3372;48.690;12.362;2023-03-21T15:45:20;17.30;17.20
6672;DHT22;3372;48.690;12.362;2023-03-21T15:47:59;17.20;17.80
6672;DHT22;3372;48.690;12.362;2023-03-21T15:50:33;17.20;18.20
6672;DHT22;3372;48.690;12.362;2023-03-21T15:53:09;17.20;18.90
6672;DHT22;3372;48.690;12.362;2023-03-21T15:55:51;17.20;18.60
6672;DHT22;3372;48.690;12.362;2023-03-21T15:58:33;17.20;18.70
6672;DHT22;3372;48.690;12.362;2023-03-21T16:01:04;17.20;18.60
6672;DHT22;3372;48.690;12.362;2023-03-21T16:03:34;17.10;18.60
6672;DHT22;3372;48.690;12.362;2023-03-21T16:08:46;17.00;19.00
6672;DHT22;3372;48.690;12.362;2023-03-21T16:13:48;17.00;20.00
6672;DHT22;3372;48.690;12.362;2023-03-21T16:16:17;16.90;19.70
6672;DHT22;3372;48.690;12.362;2023-03-21T16:18:43;16.90;19.80
6672;DHT22;3372;48.690;12.362;2023-03-21T16:21:15;16.80;19.90
6672;DHT22;3372;48.690;12.362;2023-03-21T16:23:41;16.90;20.60
6672;DHT22;3372;48.690;12.362;2023-03-21T16:26:14;16.80;20.20
6672;DHT22;3372;48.690;12.362;2023-03-21T16:28:41;16.70;20.40
6672;DHT22;3372;48.690;12.362;2023-03-21T16:31:14;16.70;20.70
6672;DHT22;3372;48.690;12.362;2023-03-21T16:33:40;16.70;20.60
6672;DHT22;3372;48.690;12.362;2023-03-21T16:36:11;16.60;21.20
6672;DHT22;3372;48.690;12.362;2023-03-21T16:38:37;16.60;21.50
6672;DHT22;3372;48.690;12.362;2023-03-21T16:41:08;16.50;22.10
6672;DHT22;3372;48.690;12.362;2023-03-21T16:43:33;16.40;22.50
6672;DHT22;3372;48.690;12.362;2023-03-21T16:45:59;16.30;22.80
6672;DHT22;3372;48.690;12.362;2023-03-21T16:48:25;16.30;22.80
6672;DHT22;3372;48.690;12.362;2023-03-21T16:50:51;16.30;23.10
6672;DHT22;3372;48.690;12.362;2023-03-21T16:53:16;16.10;23.50
6672;DHT22;3372;48.690;12.362;2023-03-21T16:55:42;16.00;23.90
6672;DHT22;3372;48.690;12.362;2023-03-21T16:58:07;15.90;24.60
6672;DHT22;3372;48.690;12.362;2023-03-21T17:00:34;15.80;24.80
6672;DHT22;3372;48.690;12.362;2023-03-21T17:03:15;15.70;25.30
6672;DHT22;3372;48.690;12.362;2023-03-21T17:05:43;15.50;25.70
6672;DHT22;3372;48.690;12.362;2023-03-21T17:08:14;15.50;25.70
6672;DHT22;3372;48.690;12.362;2023-03-21T17:10:40;15.50;25.90
6672;DHT22;3372;48.690;12.362;2023-03-21T17:13:06;15.40;26.10
6672;DHT22;3372;48.690;12.362;2023-03-21T17:15:31;15.30;25.90
6672;DHT22;3372;48.690;12.362;2023-03-21T17:17:57;15.30;26.00
6672;DHT22;3372;48.690;12.362;2023-03-21T17:20:26;15.10;26.60
6672;DHT22;3372;48.690;12.362;2023-03-21T17:22:53;15.00;27.20
6672;DHT22;3372;48.690;12.362;2023-03-21T17:25:19;14.90;27.20
6672;DHT22;3372;48.690;12.362;2023-03-21T17:27:45;14.90;27.10
6672;DHT22;3372;48.690;12.362;2023-03-21T17:30:27;14.80;27.50
6672;DHT22;3372;48.690;12.362;2023-03-21T17:32:53;14.80;28.10
6672;DHT22;3372;48.690;12.362;2023-03-21T17:35:20;14.80;27.60
6672;DHT22;3372;48.690;12.362;2023-03-21T17:37:46;14.80;28.00
6672;DHT22;3372;48.690;12.362;2023-03-21T17:40:21;14.60;28.40